createdAt,value
2018-09-04T00:00:38.821Z,82.49
2018-09-04T00:01:19.226Z,81.91
2018-09-04T00:01:59.624Z,81.43
2018-09-04T00:02:40.028Z,81.33
2018-09-04T00:03:20.458Z,80.94
2018-09-04T00:04:00.868Z,80.85
2018-09-04T00:04:41.261Z,80.18
2018-09-04T00:05:21.711Z,79.98
2018-09-04T00:06:02.157Z,80.18
2018-09-04T00:06:42.596Z,80.18
2018-09-04T00:07:22.923Z,80.66
2018-09-04T00:08:03.315Z,79.83
2018-09-04T00:08:43.718Z,80.41
2018-09-04T00:09:24.124Z,80.56
2018-09-04T00:10:04.572Z,81.33
2018-09-04T00:10:44.918Z,79.89
2018-09-04T00:11:25.324Z,80.41
2018-09-04T00:12:05.732Z,81.04
2018-09-04T00:12:46.135Z,80.56
2018-09-04T00:13:26.533Z,80.22
2018-09-04T00:14:06.931Z,80.41
2018-09-04T00:14:47.347Z,80.12
2018-09-04T00:15:27.823Z,80.41
2018-09-04T00:16:08.181Z,80.31
2018-09-04T00:16:48.595Z,80.12
2018-09-04T00:17:29.029Z,80.69
2018-09-04T00:18:09.433Z,81.27
2018-09-04T00:18:49.807Z,81.09
2018-09-04T00:19:30.264Z,80.41
2018-09-04T00:20:10.631Z,80.41
2018-09-04T00:20:51.039Z,80.79
2018-09-04T00:21:31.481Z,80.12
2018-09-04T00:23:23.924Z,80.22
2018-09-04T00:24:04.408Z,80.22
2018-09-04T00:24:44.808Z,80.51
2018-09-04T00:26:32.358Z,80.89
2018-09-04T00:27:12.466Z,81.27
2018-09-04T00:27:52.866Z,80.41
2018-09-04T00:28:33.270Z,80.12
2018-09-04T00:30:45.918Z,80.12
2018-09-04T00:31:26.296Z,79.74
2018-09-04T00:32:06.678Z,79.44
2018-09-04T00:32:47.070Z,79.74
2018-09-04T00:33:27.483Z,80.02
2018-09-04T00:34:07.873Z,79.54
2018-09-04T00:34:48.327Z,79.64
2018-09-04T00:35:28.681Z,80.22
2018-09-04T00:37:16.350Z,79.06
2018-09-04T00:37:56.571Z,79.54
2018-09-04T00:38:36.987Z,79.74
2018-09-04T00:39:17.431Z,79.93
2018-09-04T00:39:57.772Z,80.12
2018-09-04T00:40:38.153Z,79.54
2018-09-04T00:41:18.738Z,79.64
2018-09-04T00:41:59.027Z,79.83
2018-09-04T00:42:39.423Z,79.35
2018-09-04T00:43:19.836Z,79.93
2018-09-04T00:44:00.281Z,79.64
2018-09-04T00:44:40.633Z,79.44
2018-09-04T00:45:21.172Z,80.02
2018-09-04T00:46:01.537Z,80.12
2018-09-04T00:46:41.894Z,79.44
2018-09-04T00:47:22.227Z,80.12
2018-09-04T00:48:02.671Z,80.02
2018-09-04T00:48:43.047Z,79.83
2018-09-04T00:49:23.508Z,80.02
2018-09-04T00:50:03.911Z,79.93
2018-09-04T00:50:44.338Z,80.02
2018-09-04T00:51:24.690Z,79.54
2018-09-04T00:52:05.110Z,80.51
2018-09-04T00:52:45.531Z,80.6
2018-09-04T00:53:25.969Z,80.51
2018-09-04T00:54:06.471Z,80.69
2018-09-04T00:54:46.840Z,81.09
2018-09-04T00:55:27.191Z,81.18
2018-09-04T00:56:07.714Z,80.99
2018-09-04T00:56:47.992Z,81.27
2018-09-04T00:57:28.373Z,80.69
2018-09-04T00:58:08.763Z,80.99
2018-09-04T00:58:49.182Z,81.18
2018-09-04T00:59:29.613Z,80.69
2018-09-04T01:00:10.049Z,80.02
2018-09-04T01:00:50.477Z,81.18
2018-09-04T01:01:30.882Z,80.99
2018-09-04T01:02:11.300Z,81.18
2018-09-04T01:02:51.621Z,80.69
2018-09-04T01:03:32.123Z,81.09
2018-09-04T01:04:12.528Z,81.37
2018-09-04T01:04:53.157Z,80.99
2018-09-04T01:05:33.699Z,81.85
2018-09-04T01:06:13.936Z,81.37
2018-09-04T01:06:54.353Z,80.6
2018-09-04T01:07:34.774Z,81.09
2018-09-04T01:08:15.200Z,81.66
2018-09-04T01:08:55.647Z,81.85
2018-09-04T01:09:35.990Z,81.09
2018-09-04T01:10:16.860Z,81.27
2018-09-04T01:10:57.243Z,81.27
2018-09-04T01:11:37.555Z,81.76
2018-09-04T01:12:18.042Z,81.66
2018-09-04T01:12:58.520Z,81.76
2018-09-04T01:13:38.935Z,81.85
2018-09-04T01:14:19.244Z,82.14
2018-09-04T01:14:59.652Z,82.24
2018-09-04T01:15:40.054Z,81.95
2018-09-04T01:16:20.508Z,82.53
2018-09-04T01:17:00.902Z,82.53
2018-09-04T01:17:41.375Z,82.14
2018-09-04T01:18:21.759Z,83.01
2018-09-04T01:19:02.197Z,83.11
2018-09-04T01:19:42.605Z,82.82
2018-09-04T01:20:23.164Z,83.2
2018-09-04T01:21:04.792Z,83.07
2018-09-04T01:21:44.209Z,82.82
2018-09-04T01:22:24.903Z,82.78
2018-09-04T01:23:05.894Z,83.26
2018-09-04T01:23:46.263Z,83.45
2018-09-04T01:24:26.759Z,82.97
2018-09-04T01:25:07.256Z,82.82
2018-09-04T01:25:47.597Z,82.53
2018-09-04T01:26:27.977Z,82.62
2018-09-04T01:27:08.492Z,82.72
2018-09-04T01:27:48.712Z,82.59
2018-09-04T01:28:29.189Z,82.72
2018-09-04T01:29:09.625Z,82.82
2018-09-04T01:29:50.044Z,83.16
2018-09-04T01:30:30.461Z,82.43
2018-09-04T01:31:10.895Z,82.43
2018-09-04T01:31:51.195Z,82.97
2018-09-04T01:32:31.729Z,82.53
2018-09-04T01:33:12.098Z,81.95
2018-09-04T01:33:52.525Z,81.37
2018-09-04T01:34:32.922Z,81.27
2018-09-04T01:35:13.363Z,80.99
2018-09-04T01:35:53.809Z,81.33
2018-09-04T01:36:34.190Z,82.39
2018-09-04T01:37:14.546Z,82.05
2018-09-04T01:37:54.945Z,82.01
2018-09-04T01:38:35.309Z,81.95
2018-09-04T01:39:15.751Z,81.81
2018-09-04T01:39:56.216Z,81.43
2018-09-04T01:40:36.570Z,81.24
2018-09-04T01:41:17.040Z,81.66
2018-09-04T01:41:57.479Z,81.43
2018-09-04T01:42:37.898Z,81.62
2018-09-04T01:43:18.293Z,81.24
2018-09-04T01:43:58.782Z,81.72
2018-09-04T01:44:39.094Z,81.72
2018-09-04T01:45:19.537Z,82.1
2018-09-04T01:45:59.936Z,83.16
2018-09-04T01:47:48.151Z,84.22
2018-09-04T01:48:28.667Z,83.94
2018-09-04T01:49:09.096Z,83.84
2018-09-04T01:49:49.511Z,84.03
2018-09-04T01:50:29.945Z,84.12
2018-09-04T01:51:10.330Z,84.52
2018-09-04T01:51:50.789Z,84.12
2018-09-04T01:52:31.206Z,84.12
2018-09-04T01:53:11.565Z,84.12
2018-09-04T01:53:52.030Z,83.74
2018-09-04T01:54:32.464Z,83.74
2018-09-04T01:55:12.798Z,83.94
2018-09-04T01:55:53.238Z,83.64
2018-09-04T01:56:33.724Z,83.55
2018-09-04T01:57:14.080Z,83.55
2018-09-04T01:57:54.438Z,83.45
2018-09-04T01:58:34.874Z,84.99
2018-09-04T01:59:15.276Z,86.05
2018-09-04T01:59:55.717Z,85.63
2018-09-04T02:00:36.083Z,85.96
2018-09-04T02:01:16.494Z,86.05
2018-09-04T02:01:56.963Z,85.96
2018-09-04T02:02:37.332Z,86.15
2018-09-04T02:03:17.752Z,86.4
2018-09-04T02:03:58.131Z,86.63
2018-09-04T02:04:38.528Z,86.59
2018-09-04T02:05:18.913Z,86.21
2018-09-04T02:05:59.397Z,85.57
2018-09-04T02:06:39.853Z,84.99
2018-09-04T02:07:20.235Z,84.99
2018-09-04T02:08:00.705Z,84.95
2018-09-04T02:08:41.094Z,86.11
2018-09-04T02:09:21.514Z,86.78
2018-09-04T02:10:01.916Z,85.82
2018-09-04T02:10:42.309Z,86.11
2018-09-04T02:11:22.703Z,86.11
2018-09-04T02:12:03.071Z,85.05
2018-09-04T02:12:43.553Z,84.8
2018-09-04T02:13:23.994Z,84.86
2018-09-04T02:14:04.371Z,84.12
2018-09-04T02:14:44.851Z,84.61
2018-09-04T02:15:25.180Z,84.03
2018-09-04T02:16:05.686Z,83.84
2018-09-04T02:16:46.067Z,84.12
2018-09-04T02:17:26.558Z,84.61
2018-09-04T02:18:06.927Z,84.42
2018-09-04T02:18:47.357Z,84.52
2018-09-04T02:19:27.733Z,84.66
2018-09-04T02:20:08.213Z,85.47
2018-09-04T02:20:48.522Z,85.63
2018-09-04T02:21:28.949Z,86.49
2018-09-04T02:22:09.398Z,86.3
2018-09-04T02:22:49.821Z,86.59
2018-09-04T02:23:30.282Z,85.91
2018-09-04T02:24:10.604Z,85.53
2018-09-04T02:24:51.086Z,85.43
2018-09-04T02:25:31.484Z,86.21
2018-09-04T02:26:11.925Z,86.4
2018-09-04T02:26:52.274Z,86.69
2018-09-04T02:27:32.732Z,86.78
2018-09-04T02:28:13.067Z,86.69
2018-09-04T02:28:53.481Z,87.36
2018-09-04T02:29:33.940Z,87.36
2018-09-04T02:30:14.285Z,87.55
2018-09-04T02:30:54.746Z,87.65
2018-09-04T02:31:35.161Z,87.26
2018-09-04T02:32:15.554Z,87.46
2018-09-04T02:32:56.025Z,87.46
2018-09-04T02:33:36.331Z,87.36
2018-09-04T02:34:16.803Z,88.23
2018-09-04T02:34:57.235Z,88.23
2018-09-04T02:35:37.593Z,88.13
2018-09-04T02:36:18.052Z,88.23
2018-09-04T02:36:58.342Z,88.13
2018-09-04T02:37:38.740Z,88.23
2018-09-04T02:38:19.194Z,87.94
2018-09-04T02:38:59.586Z,88.32
2018-09-04T02:39:39.993Z,87.94
2018-09-04T02:40:20.402Z,87.94
2018-09-04T02:41:00.802Z,88.13
2018-09-04T02:41:41.169Z,87.74
2018-09-04T02:42:21.610Z,87.36
2018-09-04T02:43:02.009Z,87.07
2018-09-04T02:43:42.419Z,87.07
2018-09-04T02:44:22.753Z,86.88
2018-09-04T02:45:03.188Z,87.46
2018-09-04T02:45:43.576Z,86.4
2018-09-04T02:46:24.044Z,86.4
2018-09-04T02:47:04.394Z,86.59
2018-09-04T02:47:44.799Z,86.4
2018-09-04T02:48:25.217Z,86.49
2018-09-04T02:49:05.633Z,86.3
2018-09-04T02:49:46.034Z,86.59
2018-09-04T02:50:26.468Z,86.3
2018-09-04T02:51:06.853Z,86.59
2018-09-04T02:51:47.263Z,86.4
2018-09-04T02:52:27.639Z,86.4
2018-09-04T02:54:40.451Z,85.91
2018-09-04T02:55:20.740Z,85.82
2018-09-04T02:56:01.166Z,85.63
2018-09-04T02:56:41.560Z,85.72
2018-09-04T02:58:29.254Z,85.53
2018-09-04T02:59:09.543Z,86.59
2018-09-04T02:59:49.980Z,86.59
2018-09-04T03:00:30.449Z,86.49
2018-09-04T03:01:10.806Z,87.26
2018-09-04T03:01:51.160Z,87.36
2018-09-04T03:02:31.521Z,87.07
2018-09-04T03:03:11.963Z,86.69
2018-09-04T03:03:52.406Z,86.69
2018-09-04T03:04:32.745Z,86.78
2018-09-04T03:05:13.161Z,86.78
2018-09-04T03:05:53.557Z,86.78
2018-09-04T03:06:33.942Z,86.59
2018-09-04T03:07:14.336Z,86.01
2018-09-04T03:07:54.755Z,86.01
2018-09-04T03:08:35.175Z,85.82
2018-09-04T03:09:15.577Z,85.24
2018-09-04T03:09:55.994Z,85.72
2018-09-04T03:10:36.437Z,85.53
2018-09-04T03:11:16.845Z,85.82
2018-09-04T03:11:57.279Z,86.01
2018-09-04T03:12:37.665Z,86.01
2018-09-04T03:13:18.055Z,85.53
2018-09-04T03:13:58.556Z,85.82
2018-09-04T03:14:38.933Z,86.01
2018-09-04T03:15:19.298Z,86.01
2018-09-04T03:15:59.671Z,85.91
2018-09-04T03:16:40.200Z,86.11
2018-09-04T03:17:20.507Z,86.49
2018-09-04T03:19:38.351Z,86.01
2018-09-04T03:20:18.591Z,85.53
2018-09-04T03:22:11.176Z,85.63
2018-09-04T03:22:51.320Z,85.82
2018-09-04T03:25:15.777Z,86.01
2018-09-04T03:26:07.943Z,85.91
2018-09-04T03:27:00.265Z,85.53
2018-09-04T03:27:52.902Z,86.01
2018-09-04T03:28:45.162Z,85.63
2018-09-04T03:29:37.848Z,85.63
2018-09-04T03:30:29.990Z,85.82
2018-09-04T03:31:22.231Z,85.91
2018-09-04T03:32:18.638Z,86.4
2018-09-04T03:33:10.645Z,86.78
2018-09-04T03:34:02.540Z,86.4
2018-09-04T03:35:00.641Z,86.21
2018-09-04T03:35:53.347Z,86.4
2018-09-04T03:36:45.076Z,86.69
2018-09-04T03:37:37.257Z,86.55
2018-09-04T03:38:29.471Z,86.55
2018-09-04T03:39:21.747Z,87.8
2018-09-04T03:40:13.746Z,87.6
2018-09-04T03:41:06.114Z,88.28
2018-09-04T03:41:58.212Z,87.99
2018-09-04T03:42:50.510Z,87.8
2018-09-04T03:43:42.305Z,87.99
2018-09-04T03:44:34.564Z,88.09
2018-09-04T03:45:27.086Z,87.6
2018-09-04T03:46:19.147Z,87.22
2018-09-04T03:47:12.056Z,86.93
2018-09-04T03:48:04.161Z,86.93
2018-09-04T03:48:56.440Z,86.55
2018-09-04T03:49:48.363Z,87.03
2018-09-04T03:50:40.481Z,86.65
2018-09-04T03:51:32.696Z,86.45
2018-09-04T03:52:24.235Z,87.51
2018-09-04T03:53:05.736Z,87.51
2018-09-04T03:53:46.161Z,88.28
2018-09-04T03:54:26.638Z,87.9
2018-09-04T03:55:07.045Z,87.99
2018-09-04T03:55:47.403Z,87.76
2018-09-04T03:56:27.883Z,88.43
2018-09-04T03:57:08.225Z,88.71
2018-09-04T03:57:48.666Z,89.01
2018-09-04T03:58:29.052Z,89.1
2018-09-04T03:59:09.449Z,89.78
2018-09-04T03:59:49.835Z,89.58
2018-09-04T04:00:30.233Z,90.26
2018-09-04T04:01:10.722Z,89.78
2018-09-04T04:01:51.250Z,89.68
2018-09-04T04:02:31.631Z,90.35
2018-09-04T04:03:12.018Z,90.45
2018-09-04T04:03:52.454Z,90.06
2018-09-04T04:04:32.857Z,90.55
2018-09-04T04:05:13.394Z,90.26
2018-09-04T04:05:53.945Z,90.83
2018-09-04T04:07:09.812Z,91.41
2018-09-04T04:07:51.182Z,91.46
2018-09-04T04:13:24.404Z,91.94
2018-09-04T04:14:16.719Z,92.33
2018-09-04T04:15:09.272Z,92.33
2018-09-04T04:16:01.868Z,92.71
2018-09-04T04:16:54.035Z,92.81
2018-09-04T04:17:46.593Z,93
2018-09-04T04:18:39.125Z,92.91
2018-09-04T04:19:32.131Z,92.91
2018-09-04T04:20:24.213Z,93.48
2018-09-04T04:21:16.531Z,93.29
2018-09-04T04:22:09.003Z,93.73
2018-09-04T04:23:01.280Z,93.63
2018-09-04T04:23:53.800Z,93.15
2018-09-04T04:24:46.759Z,93.63
2018-09-04T04:25:39.277Z,93.05
2018-09-04T04:26:32.281Z,93.05
2018-09-04T04:27:24.746Z,93.34
2018-09-04T04:28:17.011Z,93.24
2018-09-04T05:06:13.035Z,99.99
2018-09-04T05:06:53.297Z,99.99
2018-09-04T05:07:33.684Z,99.99
2018-09-04T05:08:14.116Z,99.99
2018-09-04T05:08:54.520Z,99.99
2018-09-04T05:09:34.884Z,99.99
2018-09-04T05:10:15.318Z,99.99
2018-09-04T05:10:55.725Z,99.99
2018-09-04T05:11:36.176Z,99.99
2018-09-04T05:12:16.567Z,99.99
2018-09-04T05:12:57.155Z,99.99
2018-09-04T05:13:37.579Z,99.99
2018-09-04T05:14:17.968Z,99.99
2018-09-04T05:14:58.385Z,99.99
2018-09-04T05:15:38.771Z,99.99
2018-09-04T05:16:19.096Z,99.99
2018-09-04T05:16:59.520Z,99.99
2018-09-04T05:17:39.924Z,99.99
2018-09-04T05:18:20.410Z,99.99
2018-09-04T05:19:00.747Z,99.99
2018-09-04T05:19:41.168Z,99.99
2018-09-04T05:20:21.624Z,99.99
2018-09-04T05:21:02.016Z,99.99
2018-09-04T05:21:42.449Z,99.99
2018-09-04T05:22:23.464Z,99.99
2018-09-04T05:23:04.009Z,99.99
2018-09-04T05:23:44.303Z,99.99
2018-09-04T05:24:26.998Z,99.99
2018-09-04T05:25:08.554Z,99.99
2018-09-04T05:25:51.243Z,99.99
2018-09-04T05:26:32.566Z,99.99
2018-09-04T05:27:17.730Z,99.99
2018-09-04T05:28:00.733Z,99.99
2018-09-04T05:28:42.041Z,99.99
2018-09-04T05:29:24.195Z,99.99
2018-09-04T05:30:07.251Z,99.73
2018-09-04T05:30:47.933Z,99.92
2018-09-04T05:31:29.433Z,98.96
2018-09-04T05:32:11.268Z,99.54
2018-09-04T05:32:53.132Z,98.48
2018-09-04T05:33:35.302Z,98.63
2018-09-04T05:35:35.198Z,99.01
2018-09-04T05:36:38.254Z,98.34
2018-09-04T05:37:39.228Z,97.96
2018-09-04T05:40:55.396Z,97.19
2018-09-04T05:42:12.395Z,97.42
2018-09-04T05:43:18.713Z,96.66
2018-09-04T05:46:13.474Z,94.35
2018-09-04T05:49:33.855Z,91.6
2018-09-04T05:50:28.157Z,91.41
2018-09-04T05:51:20.167Z,91.13
2018-09-04T05:52:13.758Z,91.31
2018-09-04T05:53:16.197Z,91.13
2018-09-04T05:54:09.793Z,90.83
2018-09-04T05:55:02.444Z,90.83
2018-09-04T05:55:55.074Z,90.45
2018-09-04T05:56:54.596Z,89.87
2018-09-04T05:57:48.404Z,89.97
2018-09-04T05:58:41.776Z,89.72
2018-09-04T05:59:34.474Z,89.24
2018-09-04T06:00:26.707Z,88.57
2018-09-04T06:01:20.894Z,87.8
2018-09-04T06:02:15.943Z,87.9
2018-09-04T06:03:11.437Z,86.88
2018-09-04T06:04:06.334Z,86.98
2018-09-04T06:06:09.986Z,85.91
2018-09-04T06:07:03.840Z,85.82
2018-09-04T06:07:57.413Z,84.99
2018-09-04T06:08:50.301Z,84.9
2018-09-04T06:09:42.757Z,83.64
2018-09-04T06:10:37.154Z,83.3
2018-09-04T06:11:29.857Z,82.43
2018-09-04T06:12:23.194Z,82.09
2018-09-04T06:13:17.817Z,81.32
2018-09-04T06:14:12.998Z,80.16
2018-09-04T06:15:20.939Z,79.62
2018-09-04T06:16:42.466Z,78.46
2018-09-04T06:17:40.834Z,77.53
2018-09-04T06:18:37.981Z,77.44
2018-09-04T06:19:31.825Z,75.79
2018-09-04T06:20:24.867Z,76.22
2018-09-04T06:21:17.504Z,76.09
2018-09-04T06:22:14.223Z,75.84
2018-09-04T06:23:08.222Z,76.03
2018-09-04T06:24:07.294Z,75.84
2018-09-04T06:25:10.811Z,75.84
2018-09-04T06:27:05.357Z,75.16
2018-09-04T06:28:00.635Z,74.68
2018-09-04T06:28:53.980Z,74.42
2018-09-04T06:29:47.608Z,74.23
2018-09-04T06:30:44.398Z,73.07
2018-09-04T06:31:37.752Z,72.52
2018-09-04T06:32:33.469Z,72.62
2018-09-04T06:33:31.649Z,71.69
2018-09-04T06:34:25.591Z,71.4
2018-09-04T06:35:18.348Z,70.66
2018-09-04T06:36:10.939Z,69.69
2018-09-04T06:37:04.369Z,69.11
2018-09-04T06:37:57.533Z,68.18
2018-09-04T06:38:52.007Z,67.34
2018-09-04T06:39:45.021Z,67.14
2018-09-04T06:40:38.812Z,66.27
2018-09-04T06:41:36.281Z,65.92
2018-09-04T06:42:30.900Z,65.34
2018-09-04T06:43:27.284Z,64.07
2018-09-04T06:44:21.968Z,63.82
2018-09-04T06:45:24.147Z,62.75
2018-09-04T06:46:19.576Z,62.68
2018-09-04T06:47:17.259Z,62.98
2018-09-04T06:48:12.577Z,62.29
2018-09-04T06:49:12.813Z,61.04
2018-09-04T06:50:27.234Z,61.65
2018-09-04T06:52:17.099Z,60.68
2018-09-04T06:52:57.121Z,60.68
2018-09-04T06:53:37.549Z,60.58
2018-09-04T06:54:18.021Z,60.41
2018-09-04T06:54:58.465Z,60.22
2018-09-04T06:55:38.903Z,60.12
2018-09-04T06:56:19.261Z,60.02
2018-09-04T06:56:59.668Z,59.64
2018-09-04T06:57:40.121Z,59.05
2018-09-04T06:58:20.546Z,58.67
2018-09-04T06:59:00.940Z,58.69
2018-09-04T06:59:41.367Z,58.59
2018-09-04T07:00:21.831Z,58.4
2018-09-04T07:01:02.414Z,58.4
2018-09-04T07:01:42.720Z,58.11
2018-09-04T07:02:23.150Z,57.82
2018-09-04T07:03:03.581Z,57.85
2018-09-04T07:03:44.023Z,57.26
2018-09-04T07:04:24.388Z,57.56
2018-09-04T07:05:04.808Z,56.68
2018-09-04T07:05:46.004Z,56.97
2018-09-04T07:06:26.439Z,56.59
2018-09-04T07:07:06.914Z,56.71
2018-09-04T07:07:47.358Z,56.32
2018-09-04T07:11:48.913Z,54.6
2018-09-04T07:12:29.131Z,55.18
2018-09-04T07:13:09.609Z,55.08
2018-09-04T07:13:50.002Z,54.79
2018-09-04T07:14:30.378Z,54.4
2018-09-04T07:15:10.790Z,54.79
2018-09-04T07:15:51.263Z,54.4
2018-09-04T07:16:31.851Z,54.3
2018-09-04T07:17:12.493Z,53.94
2018-09-04T07:17:52.776Z,53.85
2018-09-04T07:19:55.989Z,53.94
2018-09-04T07:22:29.418Z,53.06
2018-09-04T07:23:09.778Z,53.16
2018-09-04T07:23:50.251Z,52.87
2018-09-04T07:24:30.684Z,52.8
2018-09-04T07:25:11.167Z,52.22
2018-09-04T07:25:51.587Z,52.02
2018-09-04T07:29:17.713Z,51.07
2018-09-04T07:31:56.336Z,51.07
2018-09-04T07:32:51.569Z,50.8
2018-09-04T07:33:45.334Z,50.8
2018-09-04T07:34:38.451Z,50.7
2018-09-04T07:37:03.629Z,50.21
2018-09-04T07:37:43.624Z,49.37
2018-09-04T07:38:23.938Z,49.56
2018-09-04T07:39:04.429Z,50.14
2018-09-04T07:39:44.743Z,49.66
2018-09-04T07:40:25.244Z,49.27
2018-09-04T07:41:05.764Z,49.56
2018-09-04T07:41:46.289Z,49.46
2018-09-04T07:42:26.690Z,49.07
2018-09-04T07:43:07.153Z,48.71
2018-09-04T07:43:47.496Z,48.61
2018-09-04T07:44:27.856Z,48.22
2018-09-04T07:45:08.452Z,47.66
2018-09-04T07:45:48.893Z,47.46
2018-09-04T07:46:30.350Z,47.56
2018-09-04T07:47:11.503Z,47.17
2018-09-04T07:47:51.384Z,47.38
2018-09-04T07:48:32.383Z,47.28
2018-09-04T07:49:12.552Z,46.6
2018-09-04T07:49:52.971Z,46.8
2018-09-04T07:50:33.440Z,46.41
2018-09-04T07:51:13.752Z,46.31
2018-09-04T07:51:54.284Z,46.11
2018-09-04T07:52:34.652Z,45.75
2018-09-04T07:53:15.059Z,46.53
2018-09-04T07:55:09.744Z,45.28
2018-09-04T07:56:08.826Z,44.69
2018-09-04T07:57:06.654Z,44.32
2018-09-04T07:58:01.043Z,44.52
2018-09-04T07:59:05.252Z,43.34
2018-09-04T08:01:11.034Z,43.63
2018-09-04T08:04:50.373Z,43.44
2018-09-04T08:05:59.420Z,43.44
2018-09-04T08:07:00.943Z,43.54
2018-09-04T08:07:41.989Z,43.54
2018-09-04T08:08:22.095Z,43.54
2018-09-04T08:09:02.523Z,43.54
2018-09-04T08:09:43.911Z,43.15
2018-09-04T08:10:24.222Z,42.95
2018-09-04T08:11:04.715Z,43.15
2018-09-04T08:11:45.089Z,42.85
2018-09-04T08:12:25.590Z,43.05
2018-09-04T08:13:06.050Z,42.56
2018-09-04T08:13:46.426Z,42.58
2018-09-04T08:14:26.893Z,42.19
2018-09-04T08:15:07.558Z,42.19
2018-09-04T08:15:49.657Z,41.99
2018-09-04T08:16:29.266Z,41.92
2018-09-04T08:17:09.562Z,41.62
2018-09-04T08:17:49.956Z,41.62
2018-09-04T08:18:30.387Z,41.25
2018-09-04T08:19:10.837Z,40.76
2018-09-04T08:19:52.355Z,40.76
2018-09-04T08:20:32.819Z,40.74
2018-09-04T08:24:03.721Z,41.8
2018-09-04T08:25:09.695Z,41.99
2018-09-04T08:28:41.737Z,43.3
2018-09-04T08:29:39.041Z,44.45
2018-09-04T08:30:40.866Z,44.84
2018-09-04T08:31:41.229Z,45.02
2018-09-04T08:34:08.180Z,45.51
2018-09-04T08:37:50.312Z,46.26
2018-09-04T08:42:18.077Z,46.17
2018-09-04T08:44:34.851Z,47.05
2018-09-04T08:47:55.270Z,48.41
2018-09-04T08:48:36.365Z,48.68
2018-09-04T08:49:17.973Z,48.78
2018-09-04T08:49:58.400Z,48.78
2018-09-04T08:50:38.393Z,48.22
2018-09-04T08:51:20.145Z,48.58
2018-09-04T08:51:59.581Z,48.88
2018-09-04T08:52:40.697Z,48.12
2018-09-04T08:53:21.379Z,47.9
2018-09-04T08:54:02.042Z,47.63
2018-09-04T08:54:43.383Z,48.02
2018-09-04T08:55:23.995Z,47.92
2018-09-04T08:56:04.381Z,48.02
2018-09-04T08:56:46.009Z,48.78
2018-09-04T08:57:26.827Z,48.19
2018-09-04T08:58:07.207Z,48.58
2018-09-04T08:58:48.092Z,48.61
2018-09-04T08:59:28.706Z,48.49
2018-09-04T09:00:10.320Z,48.58
2018-09-04T09:00:50.913Z,47.8
2018-09-04T09:01:31.422Z,47.63
2018-09-04T09:02:12.939Z,48.29
2018-09-04T09:02:53.127Z,48.39
2018-09-04T09:03:33.600Z,48.58
2018-09-04T09:04:14.179Z,48.1
2018-09-04T09:04:54.834Z,47.8
2018-09-04T09:05:35.574Z,47.71
2018-09-04T09:06:16.897Z,47.61
2018-09-04T09:06:56.714Z,47.51
2018-09-04T09:07:37.388Z,48.1
2018-09-04T09:08:18.449Z,47.51
2018-09-04T09:08:59.985Z,47.51
2018-09-04T09:09:39.760Z,47.8
2018-09-04T09:10:20.897Z,47.41
2018-09-04T09:11:00.946Z,47.8
2018-09-04T09:11:46.377Z,48
2018-09-04T09:12:26.691Z,48.68
2018-09-04T09:13:07.935Z,48.75
2018-09-04T09:13:48.727Z,48.75
2018-09-04T09:14:29.296Z,48.78
2018-09-04T09:15:10.903Z,48.78
2018-09-04T09:15:51.382Z,48.85
2018-09-04T09:16:31.881Z,48.95
2018-09-04T09:17:12.410Z,48.95
2018-09-04T09:17:54.408Z,48.56
2018-09-04T09:18:34.932Z,48.29
2018-09-04T09:19:15.551Z,48.1
2018-09-04T09:19:56.892Z,48.29
2018-09-04T09:20:37.578Z,48
2018-09-04T09:21:18.072Z,47.53
2018-09-04T09:21:59.119Z,47.12
2018-09-04T09:22:39.775Z,47.05
2018-09-04T09:23:20.432Z,47.34
2018-09-04T09:24:01.991Z,47.44
2018-09-04T09:24:42.147Z,47.44
2018-09-04T09:25:23.920Z,48.02
2018-09-04T09:26:04.837Z,48.71
2018-09-04T09:26:45.391Z,48.61
2018-09-04T09:27:26.940Z,48.9
2018-09-04T09:28:06.966Z,49.27
2018-09-04T09:28:47.747Z,49.07
2018-09-04T09:29:29.843Z,49.76
2018-09-04T09:30:10.007Z,49.46
2018-09-04T09:30:51.481Z,49.07
2018-09-04T09:31:32.315Z,49.17
2018-09-04T09:32:13.136Z,49.07
2018-09-04T09:32:54.128Z,48.88
2018-09-04T09:33:35.483Z,48.58
2018-09-04T09:34:15.830Z,48.78
2018-09-04T09:34:57.757Z,48.58
2018-09-04T09:35:37.811Z,48.68
2018-09-04T09:36:18.634Z,48.88
2018-09-04T09:36:58.964Z,48.32
2018-09-04T09:37:40.941Z,48.32
2018-09-04T09:38:22.394Z,49.1
2018-09-04T09:39:02.319Z,49.1
2018-09-04T09:39:42.865Z,49.1
2018-09-04T09:40:24.503Z,48.9
2018-09-04T09:41:06.010Z,47.53
2018-09-04T09:41:47.431Z,48.32
2018-09-04T09:44:44.515Z,46.31
2018-09-04T09:45:25.701Z,47.19
2018-09-04T09:46:06.702Z,45.92
2018-09-04T09:46:46.658Z,45.62
2018-09-04T09:47:27.128Z,45.84
2018-09-04T09:48:08.724Z,45.84
2018-09-04T09:48:48.474Z,45.55
2018-09-04T09:49:29.407Z,45.36
2018-09-04T09:50:10.854Z,45.53
2018-09-04T09:50:51.120Z,45.65
2018-09-04T09:51:31.736Z,45.75
2018-09-04T09:52:13.203Z,45.43
2018-09-04T09:52:53.739Z,46.23
2018-09-04T09:53:34.454Z,45.65
2018-09-04T09:54:15.024Z,45.65
2018-09-04T09:54:56.879Z,45.65
2018-09-04T09:55:38.212Z,45.82
2018-09-04T09:56:18.302Z,45.82
2018-09-04T09:56:58.921Z,45.62
2018-09-04T09:57:40.722Z,45.92
2018-09-04T09:58:20.583Z,45.51
2018-09-04T09:59:02.193Z,46.19
2018-09-04T09:59:42.142Z,46.39
2018-09-04T10:00:22.986Z,46.29
2018-09-04T10:01:03.599Z,46.19
2018-09-04T10:01:49.190Z,46.09
2018-09-04T10:02:30.810Z,46.29
2018-09-04T10:03:13.371Z,47.17
2018-09-04T10:03:54.662Z,46.39
2018-09-04T10:04:36.137Z,46.19
2018-09-04T10:05:17.713Z,46.29
2018-09-04T10:06:00.401Z,45.9
2018-09-04T10:06:41.683Z,45.62
2018-09-04T10:07:23.044Z,45.53
2018-09-04T10:08:04.497Z,45.06
2018-09-04T10:08:48.337Z,45.06
2018-09-04T10:09:31.052Z,44.48
2018-09-04T10:10:11.890Z,44.01
2018-09-04T10:10:53.406Z,44.2
2018-09-04T10:11:35.263Z,44.1
2018-09-04T10:12:16.754Z,43.84
2018-09-04T10:12:57.427Z,43.44
2018-09-04T10:13:38.636Z,43.05
2018-09-04T10:14:19.313Z,42.76
2018-09-04T10:14:59.860Z,42.48
2018-09-04T10:15:41.448Z,42.48
2018-09-04T10:16:23.485Z,42.29
2018-09-04T10:17:03.872Z,41.99
2018-09-04T10:17:45.250Z,41.82
2018-09-04T10:18:26.232Z,40.94
2018-09-04T10:19:06.817Z,40.94
2018-09-04T10:19:47.764Z,40.86
2018-09-04T10:20:27.667Z,40.66
2018-09-04T10:21:08.330Z,40.74
2018-09-04T10:21:50.740Z,40.25
2018-09-04T10:22:32.077Z,40.84
2018-09-04T10:23:13.468Z,40.74
2018-09-04T10:23:55.727Z,40.55
2018-09-04T10:24:36.174Z,40.74
2018-09-04T10:25:17.339Z,40.82
2018-09-04T10:25:58.182Z,40.53
2018-09-04T10:26:39.002Z,41.31
2018-09-04T10:27:19.881Z,42.07
2018-09-04T10:28:01.431Z,41.97
2018-09-04T10:28:42.251Z,41.58
2018-09-04T10:29:22.930Z,41.88
2018-09-04T11:07:33.510Z,42.25
2018-09-04T11:08:32.921Z,42.54
2018-09-04T11:14:22.079Z,43.42
2018-09-04T11:15:02.730Z,43.03
2018-09-04T11:15:43.722Z,42.25
2018-09-04T11:16:24.917Z,42.35
2018-09-04T11:17:05.380Z,42.25
2018-09-04T11:17:45.491Z,42.17
2018-09-04T11:18:26.280Z,42.46
2018-09-04T11:19:07.421Z,42.09
2018-09-04T11:19:48.600Z,41.6
2018-09-04T11:20:29.333Z,41.89
2018-09-04T11:21:12.047Z,41.42
2018-09-04T11:21:52.641Z,40.74
2018-09-04T11:22:33.514Z,40.27
2018-09-04T11:23:15.012Z,39.88
2018-09-04T11:23:54.783Z,39.22
2018-09-04T11:24:35.667Z,39.22
2018-09-04T11:25:16.490Z,39.41
2018-09-04T11:25:57.270Z,38.82
2018-09-04T11:26:38.056Z,39.14
2018-09-04T11:27:19.424Z,39.03
2018-09-04T11:27:59.467Z,38.35
2018-09-04T11:28:41.158Z,38.37
2018-09-04T11:29:22.671Z,37.96
2018-09-04T11:30:03.217Z,37.88
2018-09-04T11:30:43.734Z,37.78
2018-09-04T11:34:20.835Z,37.38
2018-09-04T11:43:01.958Z,39.09
2018-09-04T11:43:59.975Z,39.09
2018-09-04T11:44:52.775Z,38.9
2018-09-04T11:45:45.113Z,39.49
2018-09-04T11:46:42.386Z,39.09
2018-09-04T11:49:28.379Z,39
2018-09-04T11:50:08.748Z,38.6
2018-09-04T11:50:50.462Z,38.31
2018-09-04T11:51:31.668Z,38.53
2018-09-04T11:52:10.851Z,37.94
2018-09-04T11:52:51.594Z,37.45
2018-09-04T11:53:32.045Z,36.88
2018-09-04T11:54:12.661Z,36.58
2018-09-04T11:54:53.953Z,36.11
2018-09-04T11:55:33.750Z,36.6
2018-09-04T11:56:14.239Z,36.42
2018-09-04T11:56:54.984Z,36.22
2018-09-04T11:57:36.556Z,36.22
2018-09-04T11:58:17.229Z,36.72
2018-09-04T11:58:57.974Z,36.91
2018-09-04T11:59:38.543Z,37.48
2018-09-04T12:00:18.867Z,37.56
2018-09-04T12:00:59.396Z,37.96
2018-09-04T12:01:39.850Z,37.94